sensor_id;sensor_type;location;lat;lon;timestamp;temperature;humidity
72762;SHT30;60886;55.034;73.150;2022-12-18T00:00:27;-17.29;77.39
72762;SHT30;60886;55.034;73.150;2022-12-18T00:02:55;-17.38;76.31
72762;SHT30;60886;55.034;73.150;2022-12-18T00:05:27;-17.40;76.58
72762;SHT30;60886;55.034;73.150;2022-12-18T00:08:05;-17.32;77.44
72762;SHT30;60886;55.034;73.150;2022-12-18T00:10:38;-17.33;77.15
72762;SHT30;60886;55.034;73.150;2022-12-18T00:13:07;-17.29;77.32
72762;SHT30;60886;55.034;73.150;2022-12-18T00:15:39;-17.25;77.47
72762;SHT30;60886;55.034;73.150;2022-12-18T00:18:06;-17.28;77.09
72762;SHT30;60886;55.034;73.150;2022-12-18T00:20:36;-17.32;76.81
72762;SHT30;60886;55.034;73.150;2022-12-18T00:23:03;-17.32;76.77
72762;SHT30;60886;55.034;73.150;2022-12-18T00:25:33;-17.32;77.18
72762;SHT30;60886;55.034;73.150;2022-12-18T00:28:04;-17.32;77.20
72762;SHT30;60886;55.034;73.150;2022-12-18T00:30:31;-17.31;76.50
72762;SHT30;60886;55.034;73.150;2022-12-18T00:33:07;-17.40;74.63
72762;SHT30;60886;55.034;73.150;2022-12-18T00:35:38;-17.42;75.90
72762;SHT30;60886;55.034;73.150;2022-12-18T00:38:05;-17.45;76.54
72762;SHT30;60886;55.034;73.150;2022-12-18T00:40:32;-17.43;77.03
72762;SHT30;60886;55.034;73.150;2022-12-18T00:42:58;-17.40;77.00
72762;SHT30;60886;55.034;73.150;2022-12-18T00:45:30;-17.42;76.89
72762;SHT30;60886;55.034;73.150;2022-12-18T00:47:56;-17.42;76.58
72762;SHT30;60886;55.034;73.150;2022-12-18T00:50:33;-17.40;76.95
72762;SHT30;60886;55.034;73.150;2022-12-18T00:53:09;-17.38;76.98
72762;SHT30;60886;55.034;73.150;2022-12-18T00:55:40;-17.43;76.65
72762;SHT30;60886;55.034;73.150;2022-12-18T00:58:07;-17.49;76.52
72762;SHT30;60886;55.034;73.150;2022-12-18T01:00:35;-17.55;76.21
72762;SHT30;60886;55.034;73.150;2022-12-18T01:03:02;-17.53;76.70
72762;SHT30;60886;55.034;73.150;2022-12-18T01:05:40;-17.49;76.94
72762;SHT30;60886;55.034;73.150;2022-12-18T01:08:06;-17.50;76.62
72762;SHT30;60886;55.034;73.150;2022-12-18T01:10:33;-17.53;76.41
72762;SHT30;60886;55.034;73.150;2022-12-18T01:12:59;-17.57;76.50
72762;SHT30;60886;55.034;73.150;2022-12-18T01:15:26;-17.55;76.36
72762;SHT30;60886;55.034;73.150;2022-12-18T01:17:53;-17.56;75.96
72762;SHT30;60886;55.034;73.150;2022-12-18T01:20:29;-17.53;76.07
72762;SHT30;60886;55.034;73.150;2022-12-18T01:22:55;-17.56;76.24
72762;SHT30;60886;55.034;73.150;2022-12-18T01:25:32;-17.57;76.17
72762;SHT30;60886;55.034;73.150;2022-12-18T01:27:59;-17.59;75.16
72762;SHT30;60886;55.034;73.150;2022-12-18T01:30:37;-17.59;75.10
72762;SHT30;60886;55.034;73.150;2022-12-18T01:33:14;-17.59;75.52
72762;SHT30;60886;55.034;73.150;2022-12-18T01:35:41;-17.59;75.83
72762;SHT30;60886;55.034;73.150;2022-12-18T01:38:08;-17.62;75.91
72762;SHT30;60886;55.034;73.150;2022-12-18T01:40:34;-17.66;76.13
72762;SHT30;60886;55.034;73.150;2022-12-18T01:43:02;-17.62;76.61
72762;SHT30;60886;55.034;73.150;2022-12-18T01:45:38;-17.57;76.37
72762;SHT30;60886;55.034;73.150;2022-12-18T01:48:10;-17.53;76.80
72762;SHT30;60886;55.034;73.150;2022-12-18T01:50:41;-17.47;76.80
72762;SHT30;60886;55.034;73.150;2022-12-18T01:53:15;-17.45;76.43
72762;SHT30;60886;55.034;73.150;2022-12-18T01:55:51;-17.42;76.54
72762;SHT30;60886;55.034;73.150;2022-12-18T01:58:24;-17.42;76.62
72762;SHT30;60886;55.034;73.150;2022-12-18T02:00:54;-17.43;75.92
72762;SHT30;60886;55.034;73.150;2022-12-18T02:03:21;-17.39;76.19
72762;SHT30;60886;55.034;73.150;2022-12-18T02:06:09;-17.40;75.55
72762;SHT30;60886;55.034;73.150;2022-12-18T02:09:11;-17.47;75.12
72762;SHT30;60886;55.034;73.150;2022-12-18T02:17:19;-17.67;74.55
72762;SHT30;60886;55.034;73.150;2022-12-18T02:20:13;-17.77;73.69
72762;SHT30;60886;55.034;73.150;2022-12-18T02:31:28;-17.86;75.32
72762;SHT30;60886;55.034;73.150;2022-12-18T02:34:02;-17.81;76.11
72762;SHT30;60886;55.034;73.150;2022-12-18T02:36:36;-17.74;76.69
72762;SHT30;60886;55.034;73.150;2022-12-18T02:39:10;-17.66;77.15
72762;SHT30;60886;55.034;73.150;2022-12-18T02:41:43;-17.60;76.34
72762;SHT30;60886;55.034;73.150;2022-12-18T02:44:13;-17.62;75.16
72762;SHT30;60886;55.034;73.150;2022-12-18T02:46:44;-17.56;76.48
72762;SHT30;60886;55.034;73.150;2022-12-18T02:49:40;-17.50;77.20
72762;SHT30;60886;55.034;73.150;2022-12-18T03:05:48;-17.32;76.58
72762;SHT30;60886;55.034;73.150;2022-12-18T03:08:25;-17.31;76.80
72762;SHT30;60886;55.034;73.150;2022-12-18T03:11:03;-17.25;76.93
72762;SHT30;60886;55.034;73.150;2022-12-18T03:13:44;-17.22;76.94
72762;SHT30;60886;55.034;73.150;2022-12-18T03:16:22;-17.16;76.76
72762;SHT30;60886;55.034;73.150;2022-12-18T03:18:55;-17.16;76.45
72762;SHT30;60886;55.034;73.150;2022-12-18T03:21:43;-17.18;76.56
72762;SHT30;60886;55.034;73.150;2022-12-18T03:24:21;-17.15;76.50
72762;SHT30;60886;55.034;73.150;2022-12-18T03:26:52;-17.19;76.38
72762;SHT30;60886;55.034;73.150;2022-12-18T03:29:27;-17.18;76.19
72762;SHT30;60886;55.034;73.150;2022-12-18T03:35:31;-17.11;76.27
72762;SHT30;60886;55.034;73.150;2022-12-18T03:38:03;-17.16;76.21
72762;SHT30;60886;55.034;73.150;2022-12-18T03:43:36;-17.22;76.41
72762;SHT30;60886;55.034;73.150;2022-12-18T03:46:06;-17.22;76.69
72762;SHT30;60886;55.034;73.150;2022-12-18T03:48:48;-17.22;76.90
72762;SHT30;60886;55.034;73.150;2022-12-18T03:54:00;-17.12;76.89
72762;SHT30;60886;55.034;73.150;2022-12-18T03:56:48;-17.16;76.51
72762;SHT30;60886;55.034;73.150;2022-12-18T03:59:16;-17.18;76.97
72762;SHT30;60886;55.034;73.150;2022-12-18T04:01:53;-17.12;77.30
72762;SHT30;60886;55.034;73.150;2022-12-18T04:04:24;-17.02;77.09
72762;SHT30;60886;55.034;73.150;2022-12-18T04:06:52;-16.95;77.04
72762;SHT30;60886;55.034;73.150;2022-12-18T04:09:20;-16.88;76.84
72762;SHT30;60886;55.034;73.150;2022-12-18T04:11:47;-16.83;76.92
72762;SHT30;60886;55.034;73.150;2022-12-18T04:14:15;-16.71;77.09
72762;SHT30;60886;55.034;73.150;2022-12-18T04:16:42;-16.60;77.34
72762;SHT30;60886;55.034;73.150;2022-12-18T04:19:12;-16.58;76.95
72762;SHT30;60886;55.034;73.150;2022-12-18T04:21:47;-16.48;77.04
72762;SHT30;60886;55.034;73.150;2022-12-18T04:24:14;-16.41;77.14
72762;SHT30;60886;55.034;73.150;2022-12-18T04:26:48;-16.37;76.97
72762;SHT30;60886;55.034;73.150;2022-12-18T04:29:17;-16.26;76.74
72762;SHT30;60886;55.034;73.150;2022-12-18T04:31:55;-16.23;75.89
72762;SHT30;60886;55.034;73.150;2022-12-18T04:34:25;-16.15;76.20
72762;SHT30;60886;55.034;73.150;2022-12-18T04:36:53;-16.08;77.44
72762;SHT30;60886;55.034;73.150;2022-12-18T04:39:25;-16.02;76.30
72762;SHT30;60886;55.034;73.150;2022-12-18T04:41:55;-15.99;76.53
72762;SHT30;60886;55.034;73.150;2022-12-18T04:44:21;-15.92;76.89
72762;SHT30;60886;55.034;73.150;2022-12-18T04:46:49;-15.89;75.82
72762;SHT30;60886;55.034;73.150;2022-12-18T04:49:22;-15.95;74.04
72762;SHT30;60886;55.034;73.150;2022-12-18T04:51:49;-15.99;73.96
72762;SHT30;60886;55.034;73.150;2022-12-18T04:54:20;-16.08;73.26
72762;SHT30;60886;55.034;73.150;2022-12-18T04:56:47;-16.15;72.83
72762;SHT30;60886;55.034;73.150;2022-12-18T04:59:13;-16.25;72.57
72762;SHT30;60886;55.034;73.150;2022-12-18T05:01:41;-16.22;73.23
72762;SHT30;60886;55.034;73.150;2022-12-18T05:04:08;-16.22;72.96
72762;SHT30;60886;55.034;73.150;2022-12-18T05:06:35;-16.17;73.65
72762;SHT30;60886;55.034;73.150;2022-12-18T05:09:01;-16.16;74.05
72762;SHT30;60886;55.034;73.150;2022-12-18T05:11:27;-16.10;73.97
72762;SHT30;60886;55.034;73.150;2022-12-18T05:13:57;-16.03;74.15
72762;SHT30;60886;55.034;73.150;2022-12-18T05:16:23;-16.02;73.43
72762;SHT30;60886;55.034;73.150;2022-12-18T05:18:49;-15.99;73.48
72762;SHT30;60886;55.034;73.150;2022-12-18T05:21:16;-15.92;73.84
72762;SHT30;60886;55.034;73.150;2022-12-18T05:23:43;-15.88;73.00
72762;SHT30;60886;55.034;73.150;2022-12-18T05:26:15;-15.83;73.40
72762;SHT30;60886;55.034;73.150;2022-12-18T05:28:54;-15.81;73.28
72762;SHT30;60886;55.034;73.150;2022-12-18T05:31:28;-15.85;72.65
72762;SHT30;60886;55.034;73.150;2022-12-18T05:33:54;-15.77;73.61
72762;SHT30;60886;55.034;73.150;2022-12-18T05:36:21;-15.61;73.70
72762;SHT30;60886;55.034;73.150;2022-12-18T05:38:49;-15.43;74.87
72762;SHT30;60886;55.034;73.150;2022-12-18T05:41:22;-15.27;74.94
72762;SHT30;60886;55.034;73.150;2022-12-18T05:43:49;-15.16;75.27
72762;SHT30;60886;55.034;73.150;2022-12-18T05:46:17;-15.02;75.98
72762;SHT30;60886;55.034;73.150;2022-12-18T05:48:44;-14.91;75.90
72762;SHT30;60886;55.034;73.150;2022-12-18T05:51:15;-14.76;75.69
72762;SHT30;60886;55.034;73.150;2022-12-18T05:53:48;-14.68;75.32
72762;SHT30;60886;55.034;73.150;2022-12-18T05:56:18;-14.62;75.22
72762;SHT30;60886;55.034;73.150;2022-12-18T05:58:53;-14.55;75.02
72762;SHT30;60886;55.034;73.150;2022-12-18T06:01:23;-14.41;75.33
72762;SHT30;60886;55.034;73.150;2022-12-18T06:03:50;-14.34;75.02
72762;SHT30;60886;55.034;73.150;2022-12-18T06:06:22;-14.30;74.89
72762;SHT30;60886;55.034;73.150;2022-12-18T06:08:51;-14.27;74.62
72762;SHT30;60886;55.034;73.150;2022-12-18T06:11:19;-14.21;75.06
72762;SHT30;60886;55.034;73.150;2022-12-18T06:13:46;-14.14;75.06
72762;SHT30;60886;55.034;73.150;2022-12-18T06:16:16;-14.07;75.03
72762;SHT30;60886;55.034;73.150;2022-12-18T06:18:43;-14.00;75.03
72762;SHT30;60886;55.034;73.150;2022-12-18T06:21:22;-13.90;74.96
72762;SHT30;60886;55.034;73.150;2022-12-18T06:23:50;-13.86;73.50
72762;SHT30;60886;55.034;73.150;2022-12-18T06:26:16;-13.85;73.26
72762;SHT30;60886;55.034;73.150;2022-12-18T06:28:43;-13.80;73.13
72762;SHT30;60886;55.034;73.150;2022-12-18T06:31:10;-13.87;73.40
72762;SHT30;60886;55.034;73.150;2022-12-18T06:33:38;-13.90;73.93
72762;SHT30;60886;55.034;73.150;2022-12-18T06:36:11;-13.87;74.30
72762;SHT30;60886;55.034;73.150;2022-12-18T06:38:40;-13.83;74.72
72762;SHT30;60886;55.034;73.150;2022-12-18T06:41:18;-13.77;75.00
72762;SHT30;60886;55.034;73.150;2022-12-18T06:43:44;-13.67;75.18
72762;SHT30;60886;55.034;73.150;2022-12-18T06:46:11;-13.59;75.37
72762;SHT30;60886;55.034;73.150;2022-12-18T06:48:38;-13.55;75.11
72762;SHT30;60886;55.034;73.150;2022-12-18T06:51:05;-13.52;75.16
72762;SHT30;60886;55.034;73.150;2022-12-18T06:53:36;-13.55;75.21
72762;SHT30;60886;55.034;73.150;2022-12-18T06:56:14;-13.38;75.48
72762;SHT30;60886;55.034;73.150;2022-12-18T06:58:40;-13.32;75.05
72762;SHT30;60886;55.034;73.150;2022-12-18T07:01:15;-13.35;75.43
72762;SHT30;60886;55.034;73.150;2022-12-18T07:03:45;-13.25;75.50
72762;SHT30;60886;55.034;73.150;2022-12-18T07:06:25;-13.17;75.62
72762;SHT30;60886;55.034;73.150;2022-12-18T07:08:53;-13.07;75.48
72762;SHT30;60886;55.034;73.150;2022-12-18T07:11:21;-12.96;75.66
72762;SHT30;60886;55.034;73.150;2022-12-18T07:13:47;-12.91;75.31
72762;SHT30;60886;55.034;73.150;2022-12-18T07:16:19;-12.89;75.45
72762;SHT30;60886;55.034;73.150;2022-12-18T07:18:48;-12.80;75.65
72762;SHT30;60886;55.034;73.150;2022-12-18T07:21:20;-12.79;75.41
72762;SHT30;60886;55.034;73.150;2022-12-18T07:23:48;-12.77;75.08
72762;SHT30;60886;55.034;73.150;2022-12-18T07:26:25;-12.69;75.59
72762;SHT30;60886;55.034;73.150;2022-12-18T07:28:55;-12.67;75.23
72762;SHT30;60886;55.034;73.150;2022-12-18T07:31:22;-12.67;75.24
72762;SHT30;60886;55.034;73.150;2022-12-18T07:33:52;-12.70;75.24
72762;SHT30;60886;55.034;73.150;2022-12-18T07:36:24;-12.63;75.73
72762;SHT30;60886;55.034;73.150;2022-12-18T07:38:51;-12.60;75.71
72762;SHT30;60886;55.034;73.150;2022-12-18T07:41:18;-12.55;75.49
72762;SHT30;60886;55.034;73.150;2022-12-18T07:43:45;-12.52;75.85
72762;SHT30;60886;55.034;73.150;2022-12-18T07:46:12;-12.48;75.76
72762;SHT30;60886;55.034;73.150;2022-12-18T07:48:44;-12.39;75.56
72762;SHT30;60886;55.034;73.150;2022-12-18T07:51:21;-12.35;75.65
72762;SHT30;60886;55.034;73.150;2022-12-18T07:53:48;-12.34;76.07
72762;SHT30;60886;55.034;73.150;2022-12-18T07:56:15;-12.28;76.22
72762;SHT30;60886;55.034;73.150;2022-12-18T07:58:47;-12.22;75.90
72762;SHT30;60886;55.034;73.150;2022-12-18T08:01:24;-12.17;76.06
72762;SHT30;60886;55.034;73.150;2022-12-18T08:03:51;-12.14;76.28
72762;SHT30;60886;55.034;73.150;2022-12-18T08:06:17;-12.22;76.33
72762;SHT30;60886;55.034;73.150;2022-12-18T08:08:55;-12.24;76.82
72762;SHT30;60886;55.034;73.150;2022-12-18T08:11:24;-12.17;76.86
72762;SHT30;60886;55.034;73.150;2022-12-18T08:13:51;-12.10;76.30
72762;SHT30;60886;55.034;73.150;2022-12-18T08:16:17;-12.01;76.40
72762;SHT30;60886;55.034;73.150;2022-12-18T08:18:44;-11.98;76.12
72762;SHT30;60886;55.034;73.150;2022-12-18T08:21:14;-11.98;74.99
72762;SHT30;60886;55.034;73.150;2022-12-18T08:23:41;-11.99;73.92
72762;SHT30;60886;55.034;73.150;2022-12-18T08:26:08;-12.01;73.82
72762;SHT30;60886;55.034;73.150;2022-12-18T08:28:43;-11.99;73.91
72762;SHT30;60886;55.034;73.150;2022-12-18T08:31:12;-12.02;74.00
72762;SHT30;60886;55.034;73.150;2022-12-18T08:33:38;-12.05;74.38
72762;SHT30;60886;55.034;73.150;2022-12-18T08:36:16;-12.04;74.55
72762;SHT30;60886;55.034;73.150;2022-12-18T08:38:43;-12.05;74.52
72762;SHT30;60886;55.034;73.150;2022-12-18T08:41:11;-12.05;74.63
72762;SHT30;60886;55.034;73.150;2022-12-18T08:43:38;-12.05;74.59
72762;SHT30;60886;55.034;73.150;2022-12-18T08:46:25;-11.98;74.38
72762;SHT30;60886;55.034;73.150;2022-12-18T08:48:54;-12.01;74.16
72762;SHT30;60886;55.034;73.150;2022-12-18T08:51:26;-12.02;73.89
72762;SHT30;60886;55.034;73.150;2022-12-18T08:54:04;-12.05;74.08
72762;SHT30;60886;55.034;73.150;2022-12-18T08:56:31;-12.07;74.54
72762;SHT30;60886;55.034;73.150;2022-12-18T08:58:57;-12.10;74.80
72762;SHT30;60886;55.034;73.150;2022-12-18T09:01:25;-12.10;74.92
72762;SHT30;60886;55.034;73.150;2022-12-18T09:03:51;-12.04;75.18
72762;SHT30;60886;55.034;73.150;2022-12-18T09:06:19;-12.04;74.73
72762;SHT30;60886;55.034;73.150;2022-12-18T09:08:46;-12.11;74.10
72762;SHT30;60886;55.034;73.150;2022-12-18T09:11:15;-12.18;74.47
72762;SHT30;60886;55.034;73.150;2022-12-18T09:13:44;-12.21;74.19
72762;SHT30;60886;55.034;73.150;2022-12-18T09:16:10;-12.22;74.28
72762;SHT30;60886;55.034;73.150;2022-12-18T09:18:39;-12.35;74.13
72762;SHT30;60886;55.034;73.150;2022-12-18T09:21:19;-12.39;74.56
72762;SHT30;60886;55.034;73.150;2022-12-18T09:23:50;-12.41;74.15
72762;SHT30;60886;55.034;73.150;2022-12-18T09:26:22;-12.44;74.24
72762;SHT30;60886;55.034;73.150;2022-12-18T09:28:49;-12.45;74.43
72762;SHT30;60886;55.034;73.150;2022-12-18T09:31:21;-12.44;74.14
72762;SHT30;60886;55.034;73.150;2022-12-18T09:33:47;-12.45;73.97
72762;SHT30;60886;55.034;73.150;2022-12-18T09:36:16;-12.38;74.70
72762;SHT30;60886;55.034;73.150;2022-12-18T09:38:45;-12.44;74.61
72762;SHT30;60886;55.034;73.150;2022-12-18T09:44:30;-12.48;75.43
72762;SHT30;60886;55.034;73.150;2022-12-18T09:47:38;-12.56;74.67
72762;SHT30;60886;55.034;73.150;2022-12-18T09:50:26;-12.55;75.84
72762;SHT30;60886;55.034;73.150;2022-12-18T09:52:57;-12.48;76.30
72762;SHT30;60886;55.034;73.150;2022-12-18T09:55:37;-12.44;76.30
72762;SHT30;60886;55.034;73.150;2022-12-18T10:00:53;-12.50;74.96
72762;SHT30;60886;55.034;73.150;2022-12-18T10:03:20;-12.50;76.24
72762;SHT30;60886;55.034;73.150;2022-12-18T10:08:32;-12.56;75.58
72762;SHT30;60886;55.034;73.150;2022-12-18T10:14:11;-12.65;74.80
72762;SHT30;60886;55.034;73.150;2022-12-18T10:24:26;-12.83;75.15
72762;SHT30;60886;55.034;73.150;2022-12-18T10:27:06;-12.84;73.47
72762;SHT30;60886;55.034;73.150;2022-12-18T10:29:37;-12.89;73.89
72762;SHT30;60886;55.034;73.150;2022-12-18T10:32:04;-12.90;74.16
72762;SHT30;60886;55.034;73.150;2022-12-18T10:34:31;-12.91;75.66
72762;SHT30;60886;55.034;73.150;2022-12-18T10:37:00;-12.91;77.07
72762;SHT30;60886;55.034;73.150;2022-12-18T10:39:33;-12.91;77.45
72762;SHT30;60886;55.034;73.150;2022-12-18T10:42:18;-13.03;74.65
72762;SHT30;60886;55.034;73.150;2022-12-18T10:45:03;-13.04;75.80
72762;SHT30;60886;55.034;73.150;2022-12-18T10:47:29;-13.07;75.05
72762;SHT30;60886;55.034;73.150;2022-12-18T10:49:56;-13.17;73.16
72762;SHT30;60886;55.034;73.150;2022-12-18T10:52:25;-13.31;72.16
72762;SHT30;60886;55.034;73.150;2022-12-18T10:57:36;-13.38;73.41
72762;SHT30;60886;55.034;73.150;2022-12-18T11:00:24;-13.31;73.91
72762;SHT30;60886;55.034;73.150;2022-12-18T11:02:51;-13.28;73.07
72762;SHT30;60886;55.034;73.150;2022-12-18T11:05:40;-13.21;75.71
72762;SHT30;60886;55.034;73.150;2022-12-18T11:08:20;-13.11;76.91
72762;SHT30;60886;55.034;73.150;2022-12-18T11:10:49;-13.06;77.17
72762;SHT30;60886;55.034;73.150;2022-12-18T11:13:20;-12.99;76.86
72762;SHT30;60886;55.034;73.150;2022-12-18T11:15:47;-12.91;77.55
72762;SHT30;60886;55.034;73.150;2022-12-18T11:18:33;-12.83;77.63
72762;SHT30;60886;55.034;73.150;2022-12-18T11:21:08;-12.73;77.93
72762;SHT30;60886;55.034;73.150;2022-12-18T11:23:37;-12.65;77.83
72762;SHT30;60886;55.034;73.150;2022-12-18T11:26:11;-12.56;78.30
72762;SHT30;60886;55.034;73.150;2022-12-18T11:28:46;-12.49;78.15
72762;SHT30;60886;55.034;73.150;2022-12-18T11:31:28;-12.44;77.85
72762;SHT30;60886;55.034;73.150;2022-12-18T11:34:02;-12.38;78.00
72762;SHT30;60886;55.034;73.150;2022-12-18T11:36:38;-12.41;77.68
72762;SHT30;60886;55.034;73.150;2022-12-18T11:39:18;-12.32;77.55
72762;SHT30;60886;55.034;73.150;2022-12-18T11:42:24;-12.32;76.97
72762;SHT30;60886;55.034;73.150;2022-12-18T11:47:56;-12.31;76.77
72762;SHT30;60886;55.034;73.150;2022-12-18T11:50:39;-12.29;76.76
72762;SHT30;60886;55.034;73.150;2022-12-18T11:53:19;-12.34;76.74
72762;SHT30;60886;55.034;73.150;2022-12-18T11:58:43;-12.34;77.01
72762;SHT30;60886;55.034;73.150;2022-12-18T12:21:05;-12.32;77.06
72762;SHT30;60886;55.034;73.150;2022-12-18T12:23:55;-12.31;76.90
72762;SHT30;60886;55.034;73.150;2022-12-18T12:26:33;-12.29;76.92
72762;SHT30;60886;55.034;73.150;2022-12-18T12:29:23;-12.29;77.00
72762;SHT30;60886;55.034;73.150;2022-12-18T12:35:10;-12.34;77.12
72762;SHT30;60886;55.034;73.150;2022-12-18T12:40:15;-12.28;76.92
72762;SHT30;60886;55.034;73.150;2022-12-18T12:43:10;-12.26;76.89
72762;SHT30;60886;55.034;73.150;2022-12-18T12:50:52;-12.21;77.17
72762;SHT30;60886;55.034;73.150;2022-12-18T12:53:30;-12.28;77.14
72762;SHT30;60886;55.034;73.150;2022-12-18T12:56:00;-12.25;77.09
72762;SHT30;60886;55.034;73.150;2022-12-18T12:58:42;-12.18;77.11
72762;SHT30;60886;55.034;73.150;2022-12-18T13:07:29;-12.18;76.93
72762;SHT30;60886;55.034;73.150;2022-12-18T13:13:09;-12.15;76.88
72762;SHT30;60886;55.034;73.150;2022-12-18T13:23:25;-12.20;76.86
72762;SHT30;60886;55.034;73.150;2022-12-18T13:34:23;-12.18;77.09
72762;SHT30;60886;55.034;73.150;2022-12-18T13:36:52;-12.21;76.94
72762;SHT30;60886;55.034;73.150;2022-12-18T13:45:39;-12.07;77.09
72762;SHT30;60886;55.034;73.150;2022-12-18T13:48:17;-12.05;76.90
72762;SHT30;60886;55.034;73.150;2022-12-18T13:51:13;-12.01;76.76
72762;SHT30;60886;55.034;73.150;2022-12-18T13:53:44;-12.01;76.51
72762;SHT30;60886;55.034;73.150;2022-12-18T13:56:31;-11.95;76.70
72762;SHT30;60886;55.034;73.150;2022-12-18T13:59:17;-11.92;76.55
72762;SHT30;60886;55.034;73.150;2022-12-18T14:01:50;-11.87;76.35
72762;SHT30;60886;55.034;73.150;2022-12-18T14:04:30;-11.85;76.49
72762;SHT30;60886;55.034;73.150;2022-12-18T14:07:10;-11.80;76.41
72762;SHT30;60886;55.034;73.150;2022-12-18T14:09:48;-11.78;76.21
72762;SHT30;60886;55.034;73.150;2022-12-18T14:12:22;-11.82;76.08
72762;SHT30;60886;55.034;73.150;2022-12-18T14:20:43;-11.78;76.58
72762;SHT30;60886;55.034;73.150;2022-12-18T14:23:42;-11.78;76.67
72762;SHT30;60886;55.034;73.150;2022-12-18T14:26:28;-11.82;76.84
72762;SHT30;60886;55.034;73.150;2022-12-18T14:29:00;-11.75;77.03
72762;SHT30;60886;55.034;73.150;2022-12-18T14:31:38;-11.78;77.01
72762;SHT30;60886;55.034;73.150;2022-12-18T14:34:15;-11.75;77.07
72762;SHT30;60886;55.034;73.150;2022-12-18T14:36:52;-11.69;77.03
72762;SHT30;60886;55.034;73.150;2022-12-18T14:39:24;-11.67;76.85
72762;SHT30;60886;55.034;73.150;2022-12-18T14:41:51;-11.63;76.66
72762;SHT30;60886;55.034;73.150;2022-12-18T14:44:18;-11.61;76.70
72762;SHT30;60886;55.034;73.150;2022-12-18T14:46:52;-11.61;76.75
72762;SHT30;60886;55.034;73.150;2022-12-18T14:51:56;-11.46;76.45
72762;SHT30;60886;55.034;73.150;2022-12-18T14:54:31;-11.43;76.29
72762;SHT30;60886;55.034;73.150;2022-12-18T14:57:05;-11.43;76.18
72762;SHT30;60886;55.034;73.150;2022-12-18T14:59:32;-11.39;76.12
72762;SHT30;60886;55.034;73.150;2022-12-18T15:02:21;-11.40;76.10
72762;SHT30;60886;55.034;73.150;2022-12-18T15:05:14;-11.43;76.02
72762;SHT30;60886;55.034;73.150;2022-12-18T15:07:50;-11.42;76.10
72762;SHT30;60886;55.034;73.150;2022-12-18T15:10:27;-11.43;76.20
72762;SHT30;60886;55.034;73.150;2022-12-18T15:18:13;-11.43;76.70
72762;SHT30;60886;55.034;73.150;2022-12-18T15:20:49;-11.44;76.67
72762;SHT30;60886;55.034;73.150;2022-12-18T15:23:33;-11.35;76.76
72762;SHT30;60886;55.034;73.150;2022-12-18T15:26:04;-11.33;76.49
72762;SHT30;60886;55.034;73.150;2022-12-18T15:28:36;-11.25;76.47
72762;SHT30;60886;55.034;73.150;2022-12-18T15:31:19;-11.20;76.39
72762;SHT30;60886;55.034;73.150;2022-12-18T15:36:28;-11.22;76.62
72762;SHT30;60886;55.034;73.150;2022-12-18T15:39:11;-11.22;76.57
72762;SHT30;60886;55.034;73.150;2022-12-18T15:41:39;-11.25;76.49
72762;SHT30;60886;55.034;73.150;2022-12-18T15:44:22;-11.22;76.63
72762;SHT30;60886;55.034;73.150;2022-12-18T15:46:49;-11.19;76.69
72762;SHT30;60886;55.034;73.150;2022-12-18T15:49:15;-11.14;76.32
72762;SHT30;60886;55.034;73.150;2022-12-18T15:51:51;-11.15;76.43
72762;SHT30;60886;55.034;73.150;2022-12-18T15:54:29;-11.15;76.45
72762;SHT30;60886;55.034;73.150;2022-12-18T15:57:24;-11.14;76.42
72762;SHT30;60886;55.034;73.150;2022-12-18T15:59:51;-11.12;76.55
72762;SHT30;60886;55.034;73.150;2022-12-18T16:02:20;-11.18;76.51
72762;SHT30;60886;55.034;73.150;2022-12-18T16:04:50;-11.16;76.69
72762;SHT30;60886;55.034;73.150;2022-12-18T16:07:17;-11.15;76.73
72762;SHT30;60886;55.034;73.150;2022-12-18T16:09:53;-11.15;76.60
72762;SHT30;60886;55.034;73.150;2022-12-18T16:12:23;-11.16;76.66
72762;SHT30;60886;55.034;73.150;2022-12-18T16:14:51;-11.19;76.86
72762;SHT30;60886;55.034;73.150;2022-12-18T16:17:18;-11.15;77.29
72762;SHT30;60886;55.034;73.150;2022-12-18T16:19:44;-11.11;77.36
72762;SHT30;60886;55.034;73.150;2022-12-18T16:22:18;-11.05;77.18
72762;SHT30;60886;55.034;73.150;2022-12-18T16:24:46;-11.04;77.03
72762;SHT30;60886;55.034;73.150;2022-12-18T16:27:13;-11.05;76.94
72762;SHT30;60886;55.034;73.150;2022-12-18T16:29:50;-11.01;77.16
72762;SHT30;60886;55.034;73.150;2022-12-18T16:32:19;-10.88;76.81
72762;SHT30;60886;55.034;73.150;2022-12-18T16:34:46;-10.96;76.76
72762;SHT30;60886;55.034;73.150;2022-12-18T16:37:14;-10.95;76.94
72762;SHT30;60886;55.034;73.150;2022-12-18T16:39:41;-10.89;76.86
72762;SHT30;60886;55.034;73.150;2022-12-18T16:42:17;-10.88;76.85
72762;SHT30;60886;55.034;73.150;2022-12-18T16:44:45;-10.86;76.90
72762;SHT30;60886;55.034;73.150;2022-12-18T16:47:12;-10.84;76.93
72762;SHT30;60886;55.034;73.150;2022-12-18T16:49:44;-10.79;77.05
72762;SHT30;60886;55.034;73.150;2022-12-18T16:52:13;-10.82;76.99
72762;SHT30;60886;55.034;73.150;2022-12-18T16:54:40;-10.76;77.07
72762;SHT30;60886;55.034;73.150;2022-12-18T16:57:09;-10.74;77.01
72762;SHT30;60886;55.034;73.150;2022-12-18T16:59:38;-10.76;76.89
72762;SHT30;60886;55.034;73.150;2022-12-18T17:02:04;-10.75;76.91
72762;SHT30;60886;55.034;73.150;2022-12-18T17:04:41;-10.75;77.09
72762;SHT30;60886;55.034;73.150;2022-12-18T17:07:08;-10.72;77.05
72762;SHT30;60886;55.034;73.150;2022-12-18T17:09:34;-10.75;77.14
72762;SHT30;60886;55.034;73.150;2022-12-18T17:12:01;-10.72;77.09
72762;SHT30;60886;55.034;73.150;2022-12-18T17:14:27;-10.67;77.44
72762;SHT30;60886;55.034;73.150;2022-12-18T17:16:54;-10.62;77.33
72762;SHT30;60886;55.034;73.150;2022-12-18T17:19:23;-10.67;77.11
72762;SHT30;60886;55.034;73.150;2022-12-18T17:21:55;-10.68;77.43
72762;SHT30;60886;55.034;73.150;2022-12-18T17:24:21;-10.69;77.68
72762;SHT30;60886;55.034;73.150;2022-12-18T17:26:48;-10.69;77.75
72762;SHT30;60886;55.034;73.150;2022-12-18T17:29:23;-10.65;77.75
72762;SHT30;60886;55.034;73.150;2022-12-18T17:31:52;-10.69;77.89
72762;SHT30;60886;55.034;73.150;2022-12-18T17:34:18;-10.65;77.88
72762;SHT30;60886;55.034;73.150;2022-12-18T17:36:46;-10.62;77.70
72762;SHT30;60886;55.034;73.150;2022-12-18T17:39:23;-10.71;77.49
72762;SHT30;60886;55.034;73.150;2022-12-18T17:41:49;-10.71;77.60
72762;SHT30;60886;55.034;73.150;2022-12-18T17:44:17;-10.69;77.60
72762;SHT30;60886;55.034;73.150;2022-12-18T17:46:43;-10.69;77.61
72762;SHT30;60886;55.034;73.150;2022-12-18T17:49:20;-10.65;77.56
72762;SHT30;60886;55.034;73.150;2022-12-18T17:51:56;-10.67;77.70
72762;SHT30;60886;55.034;73.150;2022-12-18T17:54:22;-10.62;77.70
72762;SHT30;60886;55.034;73.150;2022-12-18T17:56:49;-10.68;77.49